createdAt,value
2018-12-19T00:00:47.187Z,5.55
2018-12-19T00:01:47.200Z,5.58
2018-12-19T00:02:47.170Z,5.76
2018-12-19T00:03:47.194Z,5.62
2018-12-19T00:04:47.143Z,5.73
2018-12-19T00:05:47.129Z,5.82
2018-12-19T00:06:47.123Z,5.77
2018-12-19T00:07:47.126Z,5.76
2018-12-19T00:08:47.102Z,5.84
2018-12-19T00:09:47.138Z,5.79
2018-12-19T00:10:47.073Z,5.87
2018-12-19T00:11:47.067Z,5.76
2018-12-19T00:12:47.049Z,5.88
2018-12-19T00:13:47.051Z,5.87
2018-12-19T00:14:47.030Z,5.87
2018-12-19T00:15:47.052Z,5.79
2018-12-19T00:16:47.010Z,5.82
2018-12-19T00:17:47.003Z,5.69
2018-12-19T00:18:46.990Z,5.62
2018-12-19T00:19:46.982Z,5.66
2018-12-19T00:20:46.978Z,5.61
2018-12-19T00:21:46.981Z,5.67
2018-12-19T00:22:46.944Z,5.75
2018-12-19T00:23:46.930Z,5.82
2018-12-19T00:24:46.920Z,5.79
2018-12-19T00:25:46.908Z,5.80
2018-12-19T00:26:46.908Z,5.87
2018-12-19T00:27:46.921Z,5.93
2018-12-19T00:28:46.875Z,5.95
2018-12-19T00:29:46.861Z,5.93
2018-12-19T00:30:46.854Z,5.93
2018-12-19T00:31:46.845Z,5.85
2018-12-19T00:32:46.846Z,5.79
2018-12-19T00:33:46.856Z,5.84
2018-12-19T00:34:46.810Z,5.88
2018-12-19T00:35:46.798Z,5.84
2018-12-19T00:36:46.788Z,5.82
2018-12-19T00:37:46.773Z,5.85
2018-12-19T00:38:46.783Z,5.82
2018-12-19T00:39:46.781Z,5.75
2018-12-19T00:40:46.742Z,5.70
2018-12-19T00:41:46.733Z,5.69
2018-12-19T00:42:46.721Z,5.62
2018-12-19T00:43:46.708Z,5.61
2018-12-19T00:44:46.719Z,5.59
2018-12-19T00:45:46.733Z,5.70
2018-12-19T00:46:46.679Z,5.70
2018-12-19T00:47:46.665Z,5.70
2018-12-19T00:48:46.656Z,5.73
2018-12-19T00:49:46.645Z,5.65
2018-12-19T00:50:46.637Z,5.65
2018-12-19T00:51:46.686Z,5.59
2018-12-19T00:52:46.610Z,5.65
2018-12-19T00:53:46.601Z,5.76
2018-12-19T00:54:46.588Z,5.77
2018-12-19T00:55:46.583Z,5.82
2018-12-19T00:56:46.573Z,5.93
2018-12-19T00:57:46.602Z,5.87
2018-12-19T00:58:46.544Z,5.91
2018-12-19T00:59:46.535Z,5.98
2018-12-19T01:00:46.527Z,5.98
2018-12-19T01:01:46.516Z,5.90
2018-12-19T01:02:46.499Z,5.93
2018-12-19T01:03:46.544Z,5.95
2018-12-19T01:04:48.163Z,6.02
2018-12-19T01:05:46.467Z,6.03
2018-12-19T01:06:46.459Z,6.12
2018-12-19T01:07:46.448Z,6.13
2018-12-19T01:08:46.433Z,6.30
2018-12-19T01:09:46.468Z,6.18
2018-12-19T01:10:46.415Z,6.09
2018-12-19T01:11:46.402Z,6.18
2018-12-19T01:12:46.390Z,6.25
2018-12-19T01:13:46.378Z,6.15
2018-12-19T01:14:46.371Z,6.16
2018-12-19T01:15:46.409Z,6.09
2018-12-19T01:16:46.347Z,6.09
2018-12-19T01:17:46.338Z,6.09
2018-12-19T01:18:46.325Z,6.15
2018-12-19T01:19:46.316Z,6.13
2018-12-19T01:20:46.302Z,6.12
2018-12-19T01:21:46.356Z,6.06
2018-12-19T01:22:46.279Z,6.09
2018-12-19T01:23:46.270Z,6.21
2018-12-19T01:24:46.259Z,6.18
2018-12-19T01:25:46.247Z,6.30
2018-12-19T01:26:46.237Z,6.30
2018-12-19T01:27:46.273Z,6.28
2018-12-19T01:28:46.233Z,6.24
2018-12-19T01:29:46.203Z,6.24
2018-12-19T01:30:46.192Z,6.24
2018-12-19T01:31:46.184Z,6.27
2018-12-19T01:32:46.182Z,6.15
2018-12-19T01:33:46.195Z,6.15
2018-12-19T01:34:46.160Z,6.15
2018-12-19T01:35:46.154Z,6.25
2018-12-19T01:36:46.131Z,6.19
2018-12-19T01:37:46.116Z,6.21
2018-12-19T01:38:46.104Z,6.21
2018-12-19T01:39:46.136Z,6.18
2018-12-19T01:40:46.085Z,6.15
2018-12-19T01:41:46.076Z,6.16
2018-12-19T01:42:46.061Z,6.21
2018-12-19T01:43:46.052Z,6.24
2018-12-19T01:44:46.043Z,6.24
2018-12-19T01:45:46.067Z,6.16
2018-12-19T01:46:46.021Z,6.19
2018-12-19T01:47:46.020Z,6.31
2018-12-19T01:48:45.994Z,6.34
2018-12-19T01:49:45.984Z,6.28
2018-12-19T01:50:45.976Z,6.47
2018-12-19T01:51:45.992Z,6.49
2018-12-19T01:52:45.953Z,6.45
2018-12-19T01:53:45.952Z,6.49
2018-12-19T01:54:45.964Z,6.38
2018-12-19T01:55:45.922Z,6.37
2018-12-19T01:56:45.906Z,6.38
2018-12-19T01:57:45.929Z,6.34
2018-12-19T01:58:45.884Z,6.31
2018-12-19T01:59:45.876Z,6.42
2018-12-19T02:00:45.882Z,6.46
2018-12-19T02:01:45.856Z,6.40
2018-12-19T02:02:45.842Z,6.34
2018-12-19T02:03:45.860Z,6.32
2018-12-19T02:04:45.819Z,6.46
2018-12-19T02:05:45.808Z,6.47
2018-12-19T02:06:45.828Z,6.61
2018-12-19T02:07:45.791Z,6.55
2018-12-19T02:08:45.774Z,6.47
2018-12-19T02:09:45.812Z,6.52
2018-12-19T02:10:45.758Z,6.47
2018-12-19T02:11:45.742Z,6.53
2018-12-19T02:12:45.778Z,6.49
2018-12-19T02:13:45.721Z,6.56
2018-12-19T02:14:45.712Z,6.50
2018-12-19T02:15:45.806Z,6.49
2018-12-19T02:16:45.690Z,6.50
2018-12-19T02:17:45.679Z,6.50
2018-12-19T02:18:45.681Z,6.49
2018-12-19T02:19:45.654Z,6.57
2018-12-19T02:20:45.720Z,6.56
2018-12-19T02:21:45.680Z,6.52
2018-12-19T02:22:45.626Z,6.46
2018-12-19T02:23:45.610Z,6.63
2018-12-19T02:24:45.610Z,6.56
2018-12-19T02:25:45.602Z,6.49
2018-12-19T02:26:45.577Z,6.53
2018-12-19T02:27:45.606Z,6.52
2018-12-19T02:28:45.557Z,6.53
2018-12-19T02:29:45.544Z,6.63
2018-12-19T02:30:45.531Z,6.61
2018-12-19T02:31:45.547Z,6.61
2018-12-19T02:32:45.514Z,6.56
2018-12-19T02:33:45.543Z,6.63
2018-12-19T02:34:45.494Z,6.61
2018-12-19T02:35:45.478Z,6.68
2018-12-19T02:36:45.465Z,6.70
2018-12-19T02:37:45.468Z,6.64
2018-12-19T02:38:45.447Z,6.68
2018-12-19T02:39:45.462Z,6.63
2018-12-19T02:40:45.425Z,6.75
2018-12-19T02:41:45.420Z,6.68
2018-12-19T02:42:45.404Z,6.79
2018-12-19T02:43:45.405Z,6.71
2018-12-19T02:44:45.392Z,6.71
2018-12-19T02:45:45.416Z,6.71
2018-12-19T02:46:45.357Z,6.70
2018-12-19T02:47:45.348Z,6.67
2018-12-19T02:48:45.338Z,6.68
2018-12-19T02:49:45.338Z,6.68
2018-12-19T02:50:45.314Z,6.64
2018-12-19T02:51:45.336Z,6.63
2018-12-19T02:52:45.289Z,6.56
2018-12-19T02:53:45.318Z,6.50
2018-12-19T02:54:45.268Z,6.43
2018-12-19T02:55:45.269Z,6.63
2018-12-19T02:56:45.261Z,6.49
2018-12-19T02:57:45.286Z,6.57
2018-12-19T02:58:45.223Z,6.57
2018-12-19T02:59:45.221Z,6.49
2018-12-19T03:00:45.203Z,6.50
2018-12-19T03:01:45.190Z,6.52
2018-12-19T03:02:45.189Z,6.49
2018-12-19T03:03:45.200Z,6.47
2018-12-19T03:04:45.158Z,6.35
2018-12-19T03:05:45.149Z,6.34
2018-12-19T03:06:45.142Z,6.40
2018-12-19T03:07:45.132Z,6.38
2018-12-19T03:08:45.138Z,6.31
2018-12-19T03:09:45.158Z,6.40
2018-12-19T03:10:45.094Z,6.40
2018-12-19T03:11:45.084Z,6.35
2018-12-19T03:12:45.070Z,6.43
2018-12-19T03:13:45.060Z,6.35
2018-12-19T03:14:45.069Z,6.47
2018-12-19T03:15:45.088Z,6.47
2018-12-19T03:16:45.029Z,6.45
2018-12-19T03:17:45.022Z,6.47
2018-12-19T03:18:45.007Z,6.34
2018-12-19T03:19:44.999Z,6.38
2018-12-19T03:20:45.008Z,6.42
2018-12-19T03:21:45.002Z,6.37
2018-12-19T03:22:44.960Z,6.35
2018-12-19T03:23:44.952Z,6.52
2018-12-19T03:24:44.940Z,6.46
2018-12-19T03:25:44.932Z,6.46
2018-12-19T03:26:44.937Z,6.60
2018-12-19T03:27:44.953Z,6.55
2018-12-19T03:28:44.893Z,6.68
2018-12-19T03:29:44.881Z,6.64
2018-12-19T03:30:44.875Z,6.73
2018-12-19T03:31:44.871Z,6.73
2018-12-19T03:32:44.870Z,6.70
2018-12-19T03:33:44.893Z,6.85
2018-12-19T03:34:44.835Z,6.81
2018-12-19T03:35:44.817Z,6.86
2018-12-19T03:36:44.810Z,6.83
2018-12-19T03:37:44.798Z,6.81
2018-12-19T03:38:44.785Z,6.82
2018-12-19T03:39:50.271Z,6.78
2018-12-19T03:40:45.762Z,6.81
2018-12-19T03:41:44.752Z,6.82
2018-12-19T03:42:44.739Z,6.89
2018-12-19T03:43:44.731Z,6.83
2018-12-19T03:44:44.720Z,6.89
2018-12-19T03:45:44.763Z,6.88
2018-12-19T03:46:44.694Z,6.88
2018-12-19T03:47:44.689Z,6.83
2018-12-19T03:48:44.677Z,6.86
2018-12-19T03:49:44.666Z,6.88
2018-12-19T03:50:44.651Z,6.86
2018-12-19T03:51:44.695Z,7.00
2018-12-19T03:52:44.649Z,7.04
2018-12-19T03:53:44.617Z,7.00
2018-12-19T03:54:44.612Z,6.96
2018-12-19T03:55:44.599Z,6.88
2018-12-19T03:56:44.587Z,6.97
2018-12-19T03:57:44.616Z,6.97
2018-12-19T03:58:44.583Z,6.93
2018-12-19T03:59:44.556Z,6.99
2018-12-19T04:00:44.544Z,6.97
2018-12-19T04:01:44.534Z,6.93
2018-12-19T04:02:44.523Z,6.92
2018-12-19T04:03:44.547Z,6.86
2018-12-19T04:04:44.521Z,6.93
2018-12-19T04:05:44.489Z,6.92
2018-12-19T04:06:44.480Z,6.83
2018-12-19T04:07:44.469Z,6.96
2018-12-19T04:08:44.455Z,6.88
2018-12-19T04:09:44.475Z,6.97
2018-12-19T04:10:44.452Z,7.04
2018-12-19T04:11:44.424Z,7.00
2018-12-19T04:12:44.410Z,7.03
2018-12-19T04:13:44.399Z,7.01
2018-12-19T04:14:44.390Z,7.10
2018-12-19T04:15:44.419Z,7.11
2018-12-19T04:16:44.376Z,7.19
2018-12-19T04:17:44.379Z,7.13
2018-12-19T04:18:44.350Z,7.16
2018-12-19T04:19:44.344Z,7.15
2018-12-19T04:20:44.321Z,7.13
2018-12-19T04:21:44.348Z,7.13
2018-12-19T04:22:44.304Z,7.18
2018-12-19T04:23:44.306Z,7.21
2018-12-19T04:24:44.287Z,7.21
2018-12-19T04:25:44.277Z,7.07
2018-12-19T04:26:44.271Z,7.11
2018-12-19T04:27:44.296Z,7.16
2018-12-19T04:28:44.245Z,7.13
2018-12-19T04:29:44.245Z,7.25
2018-12-19T04:30:44.213Z,7.16
2018-12-19T04:31:44.209Z,7.19
2018-12-19T04:32:44.217Z,7.33
2018-12-19T04:33:44.238Z,7.24
2018-12-19T04:34:44.174Z,7.22
2018-12-19T04:35:44.161Z,7.26
2018-12-19T04:36:44.158Z,7.21
2018-12-19T04:37:44.147Z,7.29
2018-12-19T04:38:44.123Z,7.31
2018-12-19T04:39:44.162Z,7.25
2018-12-19T04:40:44.102Z,7.36
2018-12-19T04:41:44.089Z,7.33
2018-12-19T04:42:44.082Z,7.47
2018-12-19T04:43:44.079Z,7.57
2018-12-19T04:44:44.067Z,7.49
2018-12-19T04:45:44.096Z,7.57
2018-12-19T04:46:44.040Z,7.49
2018-12-19T04:47:44.026Z,7.50
2018-12-19T04:48:44.014Z,7.47
2018-12-19T04:49:44.003Z,7.49
2018-12-19T04:50:44.008Z,7.47
2018-12-19T04:51:44.031Z,7.44
2018-12-19T04:52:43.970Z,7.46
2018-12-19T04:53:43.958Z,7.49
2018-12-19T04:54:43.946Z,7.60
2018-12-19T04:55:43.947Z,7.55
2018-12-19T04:56:43.930Z,7.61
2018-12-19T04:57:43.962Z,7.58
2018-12-19T04:58:43.939Z,7.62
2018-12-19T04:59:43.907Z,7.50
2018-12-19T05:00:43.880Z,7.60
2018-12-19T05:01:43.872Z,7.62
2018-12-19T05:02:43.857Z,7.69
2018-12-19T05:03:43.880Z,7.62
2018-12-19T05:04:43.852Z,7.58
2018-12-19T05:05:43.827Z,7.55
2018-12-19T05:06:43.820Z,7.64
2018-12-19T05:07:43.802Z,7.64
2018-12-19T05:08:43.792Z,7.58
2018-12-19T05:09:43.830Z,7.62
2018-12-19T05:10:43.775Z,7.64
2018-12-19T05:11:43.768Z,7.62
2018-12-19T05:12:43.755Z,7.60
2018-12-19T05:13:43.745Z,7.57
2018-12-19T05:14:43.757Z,7.55
2018-12-19T05:15:43.784Z,7.57
2018-12-19T05:16:43.712Z,7.47
2018-12-19T05:17:43.778Z,7.50
2018-12-19T05:18:43.681Z,7.55
2018-12-19T05:19:43.685Z,7.50
2018-12-19T05:20:43.681Z,7.47
2018-12-19T05:21:43.779Z,7.40
2018-12-19T05:22:43.662Z,7.40
2018-12-19T05:23:43.643Z,7.46
2018-12-19T05:24:43.639Z,7.52
2018-12-19T05:25:43.611Z,7.42
2018-12-19T05:26:43.631Z,7.50
2018-12-19T05:27:43.690Z,7.46
2018-12-19T05:28:43.585Z,7.52
2018-12-19T05:29:43.597Z,7.46
2018-12-19T05:30:43.559Z,7.46
2018-12-19T05:31:43.541Z,7.49
2018-12-19T05:32:43.536Z,7.44
2018-12-19T05:33:43.569Z,7.44
2018-12-19T05:34:43.517Z,7.49
2018-12-19T05:35:43.504Z,7.57
2018-12-19T05:36:43.484Z,7.52
2018-12-19T05:37:43.481Z,7.52
2018-12-19T05:38:43.478Z,7.44
2018-12-19T05:39:43.496Z,7.49
2018-12-19T05:40:43.479Z,7.42
2018-12-19T05:41:43.450Z,7.49
2018-12-19T05:42:43.425Z,7.37
2018-12-19T05:43:43.415Z,7.40
2018-12-19T05:44:43.413Z,7.44
2018-12-19T05:45:43.429Z,7.39
2018-12-19T05:46:43.394Z,7.39
2018-12-19T05:47:43.367Z,7.44
2018-12-19T05:48:43.374Z,7.49
2018-12-19T05:49:43.367Z,7.40
2018-12-19T05:50:43.350Z,7.44
2018-12-19T05:51:43.396Z,7.39
2018-12-19T05:52:43.318Z,7.50
2018-12-19T05:53:43.319Z,7.43
2018-12-19T05:54:43.288Z,7.34
2018-12-19T05:55:43.282Z,7.37
2018-12-19T05:56:43.273Z,7.31
2018-12-19T05:57:43.328Z,7.37
2018-12-19T05:58:43.259Z,7.33
2018-12-19T05:59:43.239Z,7.46
2018-12-19T06:00:43.224Z,7.40
2018-12-19T06:01:43.227Z,7.47
2018-12-19T06:02:43.215Z,7.42
2018-12-19T06:03:43.232Z,7.36
2018-12-19T06:04:43.195Z,7.37
2018-12-19T06:05:43.191Z,7.40
2018-12-19T06:06:43.198Z,7.31
2018-12-19T06:07:43.725Z,7.37
2018-12-19T06:08:43.144Z,7.37
2018-12-19T06:09:43.166Z,7.37
2018-12-19T06:10:43.128Z,7.28
2018-12-19T06:11:43.106Z,7.34
2018-12-19T06:12:43.095Z,7.22
2018-12-19T06:13:43.110Z,7.22
2018-12-19T06:14:43.108Z,7.29
2018-12-19T06:15:43.103Z,7.24
2018-12-19T06:16:43.092Z,7.25
2018-12-19T06:17:43.043Z,7.26
2018-12-19T06:18:43.059Z,7.29
2018-12-19T06:19:43.034Z,7.26
2018-12-19T06:20:43.002Z,7.22
2018-12-19T06:21:43.025Z,7.24
2018-12-19T06:22:42.981Z,7.22
2018-12-19T06:23:42.982Z,7.11
2018-12-19T06:24:42.977Z,7.13
2018-12-19T06:25:42.954Z,7.15
2018-12-19T06:26:43.018Z,7.13
2018-12-19T06:27:42.979Z,7.22
2018-12-19T06:28:42.923Z,7.24
2018-12-19T06:29:42.911Z,7.29
2018-12-19T06:30:42.904Z,7.22
2018-12-19T06:31:42.892Z,7.13
2018-12-19T06:32:42.878Z,7.18
2018-12-19T06:33:42.905Z,7.25
2018-12-19T06:34:42.862Z,7.22
2018-12-19T06:35:42.849Z,7.26
2018-12-19T06:36:42.833Z,7.25
2018-12-19T06:37:42.816Z,7.24
2018-12-19T06:38:42.835Z,7.22
2018-12-19T06:39:42.849Z,7.16
2018-12-19T06:40:42.806Z,7.24
2018-12-19T06:41:42.776Z,7.19
2018-12-19T06:42:42.780Z,7.18
2018-12-19T06:43:42.750Z,7.13
2018-12-19T06:44:42.748Z,7.24
2018-12-19T06:45:42.779Z,7.10
2018-12-19T06:46:42.737Z,7.11
2018-12-19T06:47:42.719Z,7.15
2018-12-19T06:48:42.703Z,7.00
2018-12-19T06:49:42.686Z,7.04
2018-12-19T06:50:42.677Z,6.93
2018-12-19T06:51:42.735Z,7.00
2018-12-19T06:52:42.672Z,7.04
2018-12-19T06:53:42.706Z,6.96
2018-12-19T06:54:42.635Z,6.92
2018-12-19T06:55:42.668Z,6.88
2018-12-19T06:56:42.616Z,6.86
2018-12-19T06:57:42.628Z,6.85
2018-12-19T06:58:42.601Z,6.82
2018-12-19T06:59:42.581Z,6.85
2018-12-19T07:00:42.563Z,6.74
2018-12-19T07:01:42.558Z,6.75
2018-12-19T07:02:42.557Z,6.74
2018-12-19T07:03:42.562Z,6.75
2018-12-19T07:04:42.526Z,6.79
2018-12-19T07:05:42.520Z,6.81
2018-12-19T07:06:42.542Z,6.83
2018-12-19T07:07:42.521Z,6.82
2018-12-19T07:08:42.471Z,6.78
2018-12-19T07:09:42.506Z,6.81
2018-12-19T07:10:42.525Z,6.75
2018-12-19T07:11:42.445Z,6.67
2018-12-19T07:12:42.440Z,6.73
2018-12-19T07:13:42.431Z,6.67
2018-12-19T07:14:42.405Z,6.70
2018-12-19T07:15:42.441Z,6.70
2018-12-19T07:16:43.625Z,6.67
2018-12-19T07:17:42.383Z,6.53
2018-12-19T07:18:42.375Z,6.64
2018-12-19T07:19:42.358Z,6.73
2018-12-19T07:20:42.358Z,6.78
2018-12-19T07:21:42.401Z,6.78
2018-12-19T07:22:42.408Z,6.67
2018-12-19T07:23:42.312Z,6.70
2018-12-19T07:24:42.302Z,6.67
2018-12-19T07:25:42.285Z,6.74
2018-12-19T07:26:42.293Z,6.67
2018-12-19T07:27:42.307Z,6.75
2018-12-19T07:28:42.285Z,6.75
2018-12-19T07:29:42.266Z,6.75
2018-12-19T07:30:42.273Z,6.64
2018-12-19T07:31:42.280Z,6.57
2018-12-19T07:32:42.217Z,6.61
2018-12-19T07:33:43.114Z,6.64
2018-12-19T07:34:44.333Z,6.68
2018-12-19T07:35:42.174Z,6.67
2018-12-19T07:36:42.160Z,6.68
2018-12-19T07:37:42.150Z,6.71
2018-12-19T07:38:42.228Z,6.74
2018-12-19T07:39:42.166Z,6.74
2018-12-19T07:40:45.593Z,6.74
2018-12-19T07:41:42.123Z,6.74
2018-12-19T07:42:42.137Z,6.70
2018-12-19T07:43:42.094Z,6.79
2018-12-19T07:44:42.086Z,6.82
2018-12-19T07:45:42.227Z,6.85
2018-12-19T07:46:42.077Z,6.88
2018-12-19T07:47:42.046Z,6.96
2018-12-19T07:48:42.041Z,6.96
2018-12-19T07:49:42.152Z,6.97
2018-12-19T07:50:42.020Z,7.03
2018-12-19T07:51:42.050Z,7.00
2018-12-19T07:52:42.003Z,7.01
2018-12-19T07:53:41.986Z,7.03
2018-12-19T07:54:41.963Z,7.00
2018-12-19T07:55:41.965Z,7.01
2018-12-19T07:56:41.984Z,7.00
2018-12-19T07:57:41.976Z,7.00
2018-12-19T07:58:41.939Z,6.96
2018-12-19T07:59:41.924Z,6.86
2018-12-19T08:00:41.923Z,6.83
2018-12-19T08:01:41.930Z,6.86
2018-12-19T08:02:41.914Z,6.93
2018-12-19T08:03:41.927Z,6.81
2018-12-19T08:04:41.864Z,6.85
2018-12-19T08:05:41.859Z,6.73
2018-12-19T08:06:41.835Z,6.70
2018-12-19T08:07:41.834Z,6.75
2018-12-19T08:08:41.818Z,6.79
2018-12-19T08:09:41.846Z,6.78
2018-12-19T08:10:41.796Z,6.74
2018-12-19T08:11:41.798Z,6.74
2018-12-19T08:12:41.767Z,6.74
2018-12-19T08:13:41.763Z,6.74
2018-12-19T08:14:41.752Z,6.74
2018-12-19T08:15:41.790Z,6.74
2018-12-19T08:16:41.734Z,6.81
2018-12-19T08:17:41.729Z,6.85
2018-12-19T08:18:41.698Z,6.88
2018-12-19T08:19:41.698Z,6.83
2018-12-19T08:20:41.686Z,6.93
2018-12-19T08:21:41.709Z,6.88
2018-12-19T08:22:41.655Z,6.88
2018-12-19T08:23:41.650Z,6.86
2018-12-19T08:24:41.635Z,6.88
2018-12-19T08:25:41.634Z,6.97
2018-12-19T08:26:41.629Z,6.97
2018-12-19T08:27:41.651Z,7.00
2018-12-19T08:28:41.599Z,7.00
2018-12-19T08:29:41.588Z,6.96
2018-12-19T08:30:41.580Z,6.96
2018-12-19T08:31:41.564Z,6.99
2018-12-19T08:32:41.559Z,7.03
2018-12-19T08:33:41.567Z,7.06
2018-12-19T08:34:41.541Z,7.04
2018-12-19T08:35:41.510Z,6.96
2018-12-19T08:36:41.500Z,7.01
2018-12-19T08:37:41.508Z,7.06
2018-12-19T08:38:41.490Z,7.01
2018-12-19T08:39:41.514Z,7.01
2018-12-19T08:40:41.471Z,7.03
2018-12-19T08:41:41.453Z,7.01
2018-12-19T08:42:41.442Z,7.03
2018-12-19T08:43:41.427Z,7.08
2018-12-19T08:44:41.412Z,7.18
2018-12-19T08:45:41.441Z,7.22
2018-12-19T08:46:41.389Z,7.26
2018-12-19T08:47:41.381Z,7.26
2018-12-19T08:48:41.367Z,7.25
2018-12-19T08:49:41.358Z,7.28
2018-12-19T08:50:41.351Z,7.34
2018-12-19T08:51:41.370Z,7.37
2018-12-19T08:52:41.323Z,7.42
2018-12-19T08:53:41.318Z,7.44
2018-12-19T08:54:41.309Z,7.44
2018-12-19T08:55:41.297Z,7.47
2018-12-19T08:56:41.288Z,7.47
2018-12-19T08:57:41.326Z,7.49
2018-12-19T08:58:41.276Z,7.57
2018-12-19T08:59:41.259Z,7.52
2018-12-19T09:00:41.250Z,7.40
2018-12-19T09:01:41.232Z,7.50
2018-12-19T09:02:41.224Z,7.55
2018-12-19T09:03:41.241Z,7.55
2018-12-19T09:04:41.201Z,7.57
2018-12-19T09:05:41.641Z,7.57
2018-12-19T09:06:41.175Z,7.58
2018-12-19T09:07:41.174Z,7.68
2018-12-19T09:08:41.161Z,7.62
2018-12-19T09:09:41.185Z,7.64
2018-12-19T09:10:41.131Z,7.64
2018-12-19T09:11:41.114Z,7.62
2018-12-19T09:12:41.108Z,7.69
2018-12-19T09:13:41.104Z,7.64
2018-12-19T09:14:41.087Z,7.60
2018-12-19T09:15:41.102Z,7.64
2018-12-19T09:16:41.058Z,7.61
2018-12-19T09:17:41.046Z,7.61
2018-12-19T09:18:41.038Z,7.68
2018-12-19T09:19:41.033Z,7.62
2018-12-19T09:20:41.014Z,7.57
2018-12-19T09:21:41.032Z,7.78
2018-12-19T09:22:40.990Z,7.78
2018-12-19T09:23:40.981Z,7.98
2018-12-19T09:24:40.968Z,7.94
2018-12-19T09:25:40.960Z,7.98
2018-12-19T09:26:40.956Z,8.06
2018-12-19T09:27:40.976Z,8.06
2018-12-19T09:28:40.939Z,8.12
2018-12-19T09:29:40.915Z,8.10
2018-12-19T09:30:40.909Z,8.17
2018-12-19T09:31:40.896Z,8.26
2018-12-19T09:32:40.887Z,8.44
2018-12-19T09:33:40.899Z,8.55
2018-12-19T09:34:40.860Z,8.59
2018-12-19T09:35:40.853Z,8.57
2018-12-19T09:36:40.852Z,8.56
2018-12-19T09:37:40.824Z,8.57
2018-12-19T09:38:41.033Z,8.55
2018-12-19T09:39:40.841Z,8.56
2018-12-19T09:40:40.794Z,8.59
2018-12-19T09:41:40.792Z,8.60
2018-12-19T09:42:40.786Z,8.57
2018-12-19T09:43:40.757Z,8.63
2018-12-19T09:44:40.747Z,8.68
2018-12-19T09:45:40.776Z,8.60
2018-12-19T09:46:40.723Z,8.55
2018-12-19T09:47:40.712Z,8.53
2018-12-19T09:48:40.704Z,8.55
2018-12-19T09:49:40.692Z,8.53
2018-12-19T09:50:40.706Z,8.57
2018-12-19T09:51:40.703Z,8.67
2018-12-19T09:52:40.666Z,8.70
2018-12-19T09:53:40.653Z,8.81
2018-12-19T09:54:40.647Z,8.77
2018-12-19T09:55:40.630Z,8.88
2018-12-19T09:56:40.622Z,8.86
2018-12-19T09:57:40.631Z,8.85
2018-12-19T09:58:40.592Z,8.89
2018-12-19T09:59:40.581Z,8.86
2018-12-19T10:00:40.589Z,8.95
2018-12-19T10:01:40.571Z,8.93
2018-12-19T10:02:40.587Z,9.03
2018-12-19T10:03:40.570Z,8.98
2018-12-19T10:04:40.538Z,9.11
2018-12-19T10:05:40.543Z,9.14
2018-12-19T10:06:40.551Z,9.06
2018-12-19T10:07:40.543Z,9.08
2018-12-19T10:08:40.493Z,9.26
2018-12-19T10:09:40.507Z,9.27
2018-12-19T10:10:40.480Z,9.30
2018-12-19T10:11:40.453Z,9.29
2018-12-19T10:12:40.469Z,9.34
2018-12-19T10:13:40.502Z,9.29
2018-12-19T10:14:40.417Z,9.32
2018-12-19T10:15:40.460Z,9.23
2018-12-19T10:16:40.396Z,9.23
2018-12-19T10:17:41.059Z,9.23
2018-12-19T10:18:40.380Z,9.24
2018-12-19T10:19:40.365Z,9.26
2018-12-19T10:20:40.352Z,9.23
2018-12-19T10:21:40.385Z,9.26
2018-12-19T10:22:40.364Z,9.29
2018-12-19T10:23:40.318Z,9.40
2018-12-19T10:24:40.312Z,9.42
2018-12-19T10:25:40.329Z,9.36
2018-12-19T10:26:40.346Z,9.41
2018-12-19T10:27:40.420Z,9.42
2018-12-19T10:28:40.264Z,9.51
2018-12-19T10:29:40.253Z,9.52
2018-12-19T10:30:40.241Z,9.48
2018-12-19T10:31:40.237Z,9.50
2018-12-19T10:32:40.246Z,9.50
2018-12-19T10:33:40.319Z,9.54
2018-12-19T10:34:40.209Z,9.50
2018-12-19T10:35:40.201Z,9.41
2018-12-19T10:36:40.190Z,9.44
2018-12-19T10:37:40.180Z,9.42
2018-12-19T10:38:40.181Z,9.42
2018-12-19T10:39:40.181Z,9.42
2018-12-19T10:40:40.151Z,9.40
2018-12-19T10:41:40.144Z,9.50
2018-12-19T10:42:40.123Z,9.51
2018-12-19T10:43:40.111Z,9.60
2018-12-19T10:44:40.099Z,9.51
2018-12-19T10:45:40.119Z,9.55
2018-12-19T10:46:40.062Z,9.63
2018-12-19T10:47:40.056Z,9.52
2018-12-19T10:48:40.046Z,9.55
2018-12-19T10:49:40.036Z,9.59
2018-12-19T10:50:40.029Z,9.57
2018-12-19T10:51:40.056Z,9.48
2018-12-19T10:52:39.993Z,9.51
2018-12-19T10:53:39.988Z,9.54
2018-12-19T10:54:39.976Z,9.51
2018-12-19T10:55:39.959Z,9.51
2018-12-19T10:56:39.950Z,9.59
2018-12-19T10:57:39.985Z,9.62
2018-12-19T10:58:39.925Z,9.60
2018-12-19T10:59:39.918Z,9.57
2018-12-19T11:00:39.912Z,9.65
2018-12-19T11:01:39.901Z,9.69
2018-12-19T11:02:39.909Z,9.67
2018-12-19T11:03:39.914Z,9.63
2018-12-19T11:04:39.873Z,9.67
2018-12-19T11:05:39.912Z,9.72
2018-12-19T11:06:39.841Z,9.73
2018-12-19T11:07:39.952Z,9.67
2018-12-19T11:08:39.892Z,9.66
2018-12-19T11:09:39.838Z,9.75
2018-12-19T11:10:39.792Z,9.70
2018-12-19T11:11:39.787Z,9.84
2018-12-19T11:12:39.771Z,9.78
2018-12-19T11:13:39.767Z,9.81
2018-12-19T11:14:39.758Z,9.72
2018-12-19T11:15:39.773Z,9.80
2018-12-19T11:16:39.748Z,9.73
2018-12-19T11:17:39.741Z,9.63
2018-12-19T11:18:39.720Z,9.75
2018-12-19T11:19:39.708Z,9.77
2018-12-19T11:20:39.701Z,9.78
2018-12-19T11:21:39.712Z,9.80
2018-12-19T11:22:39.678Z,9.73
2018-12-19T11:23:39.668Z,9.80
2018-12-19T11:24:39.644Z,9.77
2018-12-19T11:25:39.646Z,9.70
2018-12-19T11:26:39.636Z,9.78
2018-12-19T11:27:39.645Z,9.87
2018-12-19T11:28:39.593Z,9.85
2018-12-19T11:29:39.590Z,9.90
2018-12-19T11:30:39.584Z,9.84
2018-12-19T11:31:39.589Z,9.85
2018-12-19T11:32:39.594Z,9.84
2018-12-19T11:33:39.576Z,9.80
2018-12-19T11:34:39.531Z,9.78
2018-12-19T11:35:39.511Z,9.87
2018-12-19T11:36:39.515Z,9.83
2018-12-19T11:37:39.491Z,9.90
2018-12-19T11:38:39.481Z,9.99
2018-12-19T11:39:39.502Z,9.90
2018-12-19T11:40:39.460Z,10.05
2018-12-19T11:41:39.460Z,10.02
2018-12-19T11:42:39.435Z,9.96
2018-12-19T11:43:39.424Z,10.01
2018-12-19T11:44:39.410Z,10.08
2018-12-19T11:45:39.433Z,10.16
2018-12-19T11:46:39.389Z,10.05
2018-12-19T11:47:39.384Z,10.06
2018-12-19T11:48:39.378Z,10.21
2018-12-19T11:49:39.379Z,10.14
2018-12-19T11:50:39.357Z,10.12
2018-12-19T11:51:39.368Z,10.26
2018-12-19T11:52:39.325Z,10.18
2018-12-19T11:53:39.356Z,10.10
2018-12-19T11:54:39.335Z,10.08
2018-12-19T11:55:39.299Z,10.03
2018-12-19T11:56:39.309Z,10.06
2018-12-19T11:57:39.413Z,10.16
2018-12-19T11:58:39.258Z,9.99
2018-12-19T11:59:39.282Z,10.02
2018-12-19T12:00:39.237Z,10.12
2018-12-19T12:01:41.475Z,10.12
2018-12-19T12:02:39.220Z,10.17
2018-12-19T12:03:39.241Z,10.16
2018-12-19T12:04:39.223Z,10.20
2018-12-19T12:05:39.193Z,10.30
2018-12-19T12:06:39.205Z,10.38
2018-12-19T12:07:39.177Z,10.48
2018-12-19T12:08:39.149Z,10.55
2018-12-19T12:09:39.183Z,10.62
2018-12-19T12:10:39.129Z,10.67
2018-12-19T12:11:45.446Z,10.79
2018-12-19T12:12:40.107Z,10.78
2018-12-19T12:13:39.120Z,10.94
2018-12-19T12:14:39.108Z,10.90
2018-12-19T12:15:39.156Z,10.82
2018-12-19T12:16:39.086Z,10.93
2018-12-19T12:17:39.057Z,10.95
2018-12-19T12:18:39.040Z,10.94
2018-12-19T12:19:39.064Z,10.94
2018-12-19T12:20:39.027Z,10.94
2018-12-19T12:21:39.037Z,10.94
2018-12-19T12:22:39.008Z,10.86
2018-12-19T12:23:38.994Z,10.91
2018-12-19T12:24:38.976Z,10.85
2018-12-19T12:25:38.957Z,10.78
2018-12-19T12:26:38.962Z,10.65
2018-12-19T12:27:38.970Z,10.64
2018-12-19T12:28:38.928Z,10.72
2018-12-19T12:29:38.984Z,10.68
2018-12-19T12:30:38.908Z,10.70
2018-12-19T12:31:38.893Z,10.70
2018-12-19T12:32:38.886Z,10.64
2018-12-19T12:33:38.911Z,10.64
2018-12-19T12:34:38.866Z,10.68
2018-12-19T12:35:38.850Z,10.72
2018-12-19T12:36:38.850Z,10.70
2018-12-19T12:37:38.834Z,10.65
2018-12-19T12:38:38.846Z,10.62
2018-12-19T12:39:38.842Z,10.64
2018-12-19T12:40:38.803Z,10.64
2018-12-19T12:41:38.776Z,10.61
2018-12-19T12:42:38.773Z,10.61
2018-12-19T12:43:38.763Z,10.68
2018-12-19T12:44:38.774Z,10.65
2018-12-19T12:45:38.771Z,10.58
2018-12-19T12:46:38.730Z,10.65
2018-12-19T12:47:38.720Z,10.55
2018-12-19T12:48:38.707Z,10.62
2018-12-19T12:49:38.739Z,10.57
2018-12-19T12:50:38.733Z,10.43
2018-12-19T12:51:38.719Z,10.34
2018-12-19T12:52:38.675Z,10.34
2018-12-19T12:53:38.654Z,10.31
2018-12-19T12:54:38.640Z,10.23
2018-12-19T12:55:38.633Z,10.14
2018-12-19T12:56:38.624Z,9.98
2018-12-19T12:57:38.668Z,10.05
2018-12-19T12:58:38.598Z,10.01
2018-12-19T12:59:38.592Z,9.90
2018-12-19T13:00:38.583Z,9.87
2018-12-19T13:01:38.571Z,9.96
2018-12-19T13:02:38.551Z,9.96
2018-12-19T13:03:38.669Z,10.02
2018-12-19T13:04:38.527Z,10.06
2018-12-19T13:05:38.524Z,10.26
2018-12-19T13:06:38.510Z,10.34
2018-12-19T13:07:38.492Z,10.41
2018-12-19T13:08:38.492Z,10.46
2018-12-19T13:09:38.513Z,10.48
2018-12-19T13:10:38.480Z,10.39
2018-12-19T13:11:38.465Z,10.30
2018-12-19T13:12:38.454Z,10.26
2018-12-19T13:13:38.450Z,10.28
2018-12-19T13:14:38.427Z,10.31
2018-12-19T13:15:38.462Z,10.35